KRAC/RAC METAR and TAF weather

Enter ICAO airport designator
Station Type Date Time Source
KRAC METAR 2021/09/28 16:53 UTC NOAA

KRAC 281653Z AUTO VRB06KT 10SM FEW018 19/13 A3006 RMK AO2 SLP179 T01940133


Station Type Date Time Source
KRAC Decoded METAR 2021/09/28 16:53 UTC NOAA

BATTEN INTERNATIONAL AIRPORT, WI, United States (KRAC) 42-46N 87-49W 203M
Sep 28, 2021 - 12:53 PM EDT / 2021.09.28 1653 UTC
Wind: Variable at 7 MPH (6 KT):0
Visibility: 10 mile(s):0
Sky conditions: mostly clear
Temperature: 66.9 F (19.4 C)
Dew Point: 55.9 F (13.3 C)
Relative Humidity: 67%
Pressure (altimeter): 30.06 in. Hg (1017 hPa)
ob: KRAC 281653Z AUTO VRB06KT 10SM FEW018 19/13 A3006 RMK AO2 SLP179 T01940133
cycle: 17

Station Type Date Time Source
KRAC TAF UTC NOAA

Error!

Example: see airport list